Flight Track Log - Related Links

Times and Time Zones

All times are in EDT time to prevent confusion due to time zone crossing. See the EJA831 flight status page for this flight to view local times or setup timezone preferences in your user account.

Time Position Orientation Groundspeed Altitude Reporting Facility
EDT Latitude Longitude Course Direction KTS MPH feet Rate Location/Type
Thu 03:59:51 PM 37.3833 -121.9500 138° Southeast 158 182 2,000  Level Northern Cal TRACON
Thu 04:00:51 PM 37.4167 -121.9833 322° Northwest 203 234 5,000 1,500 Climbing Northern Cal TRACON
Thu 04:01:51 PM 37.4333 -121.9167 73° East 228 262 5,000 200 Level Northern Cal TRACON
Thu 04:02:51 PM 37.3833 -121.8500 133° Southeast 235 270 5,400 1,850 Climbing Northern Cal TRACON
Thu 04:03:51 PM 37.3500 -121.8000 130° Southeast 245 282 8,700 3,600 Climbing Northern Cal TRACON
Thu 04:04:51 PM 37.2667 -121.7333 148° Southeast 314 361 12,600 3,460 Climbing Northern Cal TRACON
Thu 04:05:00 PM 36.9786 -121.6455 138° Southeast  Level Estimated
Thu 04:06:08 PM 37.1872 -121.6339 135° Southeast 346 398 16,600  Level Oakland Center
Thu 04:07:10 PM 37.1047 -121.5428 139° Southeast 397 457 17,000 195 Climbing Oakland Center
Thu 04:08:11 PM 37.0228 -121.4536 139° Southeast 422 486 17,000  Level Oakland Center
Thu 04:09:13 PM 36.9161 -121.3383 139° Southeast 422 486 17,000  Level Oakland Center
Thu 04:10:14 PM 36.8294 -121.2428 139° Southeast 417 480 17,000  Level Oakland Center
Thu 04:11:16 PM 36.7444 -121.1511 139° Southeast 419 482 17,000  Level Oakland Center
Thu 04:12:17 PM 36.6572 -121.0583 140° Southeast 416 479 17,000  Level Oakland Center
Thu 04:13:19 PM 36.5694 -120.9614 138° Southeast 419 482 17,000  Level Oakland Center
Thu 04:14:20 PM 36.4808 -120.8669 139° Southeast 420 483 17,000  Level Oakland Center
Thu 04:15:22 PM 36.3936 -120.7681 138° Southeast 424 488 17,000  Level Oakland Center
Thu 04:16:24 PM 36.2878 -120.6550 139° Southeast 420 483 17,000  Level Oakland Center
Thu 04:17:25 PM 36.1978 -120.5647 141° Southeast 417 480 17,000  Level Oakland Center
Thu 04:18:27 PM 36.1028 -120.4803 144° Southeast 428 493 17,000  Level Oakland Center
Thu 04:19:28 PM 35.9908 -120.4533 169° South 409 471 17,000  Level Oakland Center
Thu 04:20:30 PM 35.8783 -120.4253 169° South 410 472 17,000  Level Oakland Center
Thu 04:21:31 PM 35.7650 -120.3969 169° South 414 476 17,000  Level Oakland Center
Thu 04:22:33 PM 35.6508 -120.3669 168° South 417 480 17,000  Level Oakland Center
Thu 04:23:34 PM 35.5369 -120.3392 169° South 417 480 17,000  Level Oakland Center
Thu 04:24:36 PM 35.4208 -120.3103 169° South 414 476 17,000 48 Level Oakland Center
Thu 04:25:38 PM 35.3081 -120.2800 168° South 414 476 17,100 49 Climbing Oakland Center
Thu 04:26:39 PM 35.1911 -120.2522 169° South 409 471 17,100 -390 Level Oakland Center
Thu 04:27:41 PM 35.0581 -120.2200 169° South 407 468 16,300 -1,122 Descending Oakland Center
Thu 04:28:42 PM 34.9467 -120.1925 169° South 408 470 14,800 -1,415 Descending Oakland Center
Thu 04:29:44 PM 34.8372 -120.1653 168° South 404 465 13,400 -1,412 Descending Oakland Center
Thu 04:30:24 PM 34.7614 -120.1481 169° South 374 430 12,400 -1,187 Descending Los Angeles Center
Thu 04:31:15 PM 34.7044 -120.1325 167° South 348 400 11,600 -1,100 Descending Los Angeles Center
Thu 04:31:24 PM 34.6744 -120.1261 170° South 309 356 11,300 -1,161 Descending Los Angeles Center
Thu 04:32:17 PM 34.6069 -120.1094 169° South 301 346 10,400 -984 Descending Los Angeles Center
Thu 04:32:25 PM 34.5947 -120.1072 171° South 285 328 10,300 -871 Descending Los Angeles Center
Thu 04:33:19 PM 34.5308 -120.0867 165° South 282 325 9,500 -885 Descending Los Angeles Center
Thu 04:33:26 PM 34.5256 -120.0772 124° Southeast 266 306 9,400 -1,065 Descending Los Angeles Center
Thu 04:34:21 PM 34.4867 -120.0269 133° Southeast 253 291 8,400 -1,343 Descending Los Angeles Center
Thu 04:34:33 PM 34.4631 -120.0192 165° South 269 310 7,900 -1,238 Descending Los Angeles Center
Thu 04:35:24 PM 34.4153 -119.9964 159° South 264 304 7,100 -1,100 Descending Los Angeles Center
Thu 04:35:33 PM 34.4025 -119.9889 154° Southeast 237 273 6,800 -1,258 Descending Los Angeles Center
Thu 04:36:26 PM 34.3775 -119.9489 127° Southeast 239 275 5,800 -1,527 Descending Los Angeles Center
Thu 04:36:28 PM 34.3775 -119.9344 90° East 208 239 5,400 -1,839 Descending Los Angeles Center
Thu 04:37:28 PM 34.3819 -119.8736 85° East 194 223 3,900 -1,522 Descending Los Angeles Center
Thu 04:37:35 PM 34.3817 -119.8656 92° East 181 208 3,700 -1,701 Descending Los Angeles Center
Thu 04:38:35 PM 34.3794 -119.8064 93° East 186 214 2,000 -1,433 Descending Los Angeles Center
Thu 04:38:42 PM 34.3769 -119.8139 248° West 182 209 2,100 -873 Climbing Los Angeles Center
Thu 04:39:30 PM 34.4053 -119.7875 38° Northeast 139 160 1,200 -1,048 Descending Los Angeles Center
Thu 04:39:45 PM 34.4083 -119.7903 323° Northwest 156 180 1,000 -875 Descending Los Angeles Center
Thu 04:40:18 PM 34.4244 -119.8047 324° Northwest 112 129 500 -492 Descending Los Angeles Center
Thu 04:40:46 PM 34.4281 -119.8081 323° Northwest 131 151 500  Level Los Angeles Center
Thu 04:43:00 PM 34.4167 -119.8333 331° Northwest  Level FlightAware Approximate

Login

Don't have an account? Register now (free) for customized features, flight alerts, and more!